sensor_id;sensor_type;location;lat;lon;timestamp;P1;durP1;ratioP1;P2;durP2;ratioP2
18046;SDS011;9148;51.454;13.862;2023-03-01T00:00:38;7.10;;;4.83;;
18046;SDS011;9148;51.454;13.862;2023-03-01T00:03:04;7.50;;;4.90;;
18046;SDS011;9148;51.454;13.862;2023-03-01T00:05:30;9.07;;;4.63;;
18046;SDS011;9148;51.454;13.862;2023-03-01T00:07:56;7.17;;;4.47;;
18046;SDS011;9148;51.454;13.862;2023-03-01T00:10:22;7.37;;;5.37;;
18046;SDS011;9148;51.454;13.862;2023-03-01T00:12:48;9.73;;;4.87;;
18046;SDS011;9148;51.454;13.862;2023-03-01T00:15:14;9.07;;;4.90;;
18046;SDS011;9148;51.454;13.862;2023-03-01T00:17:40;8.53;;;5.53;;
18046;SDS011;9148;51.454;13.862;2023-03-01T00:20:05;8.37;;;4.57;;
18046;SDS011;9148;51.454;13.862;2023-03-01T00:22:36;8.37;;;5.60;;
18046;SDS011;9148;51.454;13.862;2023-03-01T00:25:02;10.60;;;6.40;;
18046;SDS011;9148;51.454;13.862;2023-03-01T00:27:28;8.53;;;5.10;;
18046;SDS011;9148;51.454;13.862;2023-03-01T00:29:54;6.47;;;5.13;;
18046;SDS011;9148;51.454;13.862;2023-03-01T00:32:20;5.13;;;3.80;;
18046;SDS011;9148;51.454;13.862;2023-03-01T00:34:45;9.03;;;5.77;;
18046;SDS011;9148;51.454;13.862;2023-03-01T00:37:19;10.53;;;5.63;;
18046;SDS011;9148;51.454;13.862;2023-03-01T00:39:46;9.33;;;5.13;;
18046;SDS011;9148;51.454;13.862;2023-03-01T00:42:12;8.37;;;5.37;;
18046;SDS011;9148;51.454;13.862;2023-03-01T00:44:38;9.70;;;5.57;;
18046;SDS011;9148;51.454;13.862;2023-03-01T00:47:03;11.30;;;6.17;;
18046;SDS011;9148;51.454;13.862;2023-03-01T00:49:29;9.27;;;6.57;;
18046;SDS011;9148;51.454;13.862;2023-03-01T00:51:55;8.30;;;5.57;;
18046;SDS011;9148;51.454;13.862;2023-03-01T00:54:20;7.70;;;5.30;;
18046;SDS011;9148;51.454;13.862;2023-03-01T00:56:46;7.30;;;5.07;;
18046;SDS011;9148;51.454;13.862;2023-03-01T00:59:11;11.50;;;5.33;;
18046;SDS011;9148;51.454;13.862;2023-03-01T01:01:37;9.90;;;5.97;;
18046;SDS011;9148;51.454;13.862;2023-03-01T01:04:04;6.47;;;5.37;;
18046;SDS011;9148;51.454;13.862;2023-03-01T01:06:37;10.17;;;5.83;;
18046;SDS011;9148;51.454;13.862;2023-03-01T01:09:09;8.37;;;5.03;;
18046;SDS011;9148;51.454;13.862;2023-03-01T01:11:42;8.50;;;5.00;;
18046;SDS011;9148;51.454;13.862;2023-03-01T01:14:16;10.00;;;5.40;;
18046;SDS011;9148;51.454;13.862;2023-03-01T01:16:43;9.20;;;5.17;;
18046;SDS011;9148;51.454;13.862;2023-03-01T01:19:09;6.33;;;5.43;;
18046;SDS011;9148;51.454;13.862;2023-03-01T01:21:36;11.23;;;5.20;;
18046;SDS011;9148;51.454;13.862;2023-03-01T01:24:03;9.87;;;5.47;;
18046;SDS011;9148;51.454;13.862;2023-03-01T01:26:30;7.03;;;4.93;;
18046;SDS011;9148;51.454;13.862;2023-03-01T01:28:58;10.27;;;6.10;;
18046;SDS011;9148;51.454;13.862;2023-03-01T01:31:41;9.13;;;6.20;;
18046;SDS011;9148;51.454;13.862;2023-03-01T01:34:08;10.57;;;5.63;;
18046;SDS011;9148;51.454;13.862;2023-03-01T01:36:42;9.50;;;5.97;;
18046;SDS011;9148;51.454;13.862;2023-03-01T01:39:09;8.73;;;5.50;;
18046;SDS011;9148;51.454;13.862;2023-03-01T01:41:38;9.83;;;5.40;;
18046;SDS011;9148;51.454;13.862;2023-03-01T01:44:17;8.37;;;4.97;;
18046;SDS011;9148;51.454;13.862;2023-03-01T01:46:54;9.50;;;5.83;;
18046;SDS011;9148;51.454;13.862;2023-03-01T01:49:43;10.77;;;5.77;;
18046;SDS011;9148;51.454;13.862;2023-03-01T01:52:25;11.03;;;6.00;;
18046;SDS011;9148;51.454;13.862;2023-03-01T01:57:41;7.70;;;5.37;;
18046;SDS011;9148;51.454;13.862;2023-03-01T02:00:14;11.77;;;5.80;;
18046;SDS011;9148;51.454;13.862;2023-03-01T02:02:50;11.30;;;5.80;;
18046;SDS011;9148;51.454;13.862;2023-03-01T02:08:14;6.93;;;5.20;;
18046;SDS011;9148;51.454;13.862;2023-03-01T02:10:42;9.97;;;6.40;;
18046;SDS011;9148;51.454;13.862;2023-03-01T02:13:09;9.70;;;6.17;;
18046;SDS011;9148;51.454;13.862;2023-03-01T02:15:36;8.87;;;5.63;;
18046;SDS011;9148;51.454;13.862;2023-03-01T02:18:04;13.30;;;6.10;;
18046;SDS011;9148;51.454;13.862;2023-03-01T02:20:40;11.73;;;6.47;;
18046;SDS011;9148;51.454;13.862;2023-03-01T02:23:22;10.47;;;6.00;;
18046;SDS011;9148;51.454;13.862;2023-03-01T02:25:52;8.93;;;5.77;;
18046;SDS011;9148;51.454;13.862;2023-03-01T02:28:33;7.87;;;5.57;;
18046;SDS011;9148;51.454;13.862;2023-03-01T02:31:01;13.07;;;6.23;;
18046;SDS011;9148;51.454;13.862;2023-03-01T02:33:50;10.50;;;6.70;;
18046;SDS011;9148;51.454;13.862;2023-03-01T02:36:17;12.53;;;7.33;;
18046;SDS011;9148;51.454;13.862;2023-03-01T02:38:47;14.77;;;7.03;;
18046;SDS011;9148;51.454;13.862;2023-03-01T02:41:15;11.83;;;7.30;;
18046;SDS011;9148;51.454;13.862;2023-03-01T02:43:42;11.23;;;6.93;;
18046;SDS011;9148;51.454;13.862;2023-03-01T02:46:13;10.67;;;6.53;;
18046;SDS011;9148;51.454;13.862;2023-03-01T02:48:43;11.87;;;7.03;;
18046;SDS011;9148;51.454;13.862;2023-03-01T02:54:23;10.03;;;7.37;;
18046;SDS011;9148;51.454;13.862;2023-03-01T02:56:56;8.27;;;6.23;;
18046;SDS011;9148;51.454;13.862;2023-03-01T02:59:24;16.37;;;7.30;;
18046;SDS011;9148;51.454;13.862;2023-03-01T03:01:55;9.10;;;6.23;;
18046;SDS011;9148;51.454;13.862;2023-03-01T03:04:21;10.07;;;6.03;;
18046;SDS011;9148;51.454;13.862;2023-03-01T03:06:47;9.27;;;6.70;;
18046;SDS011;9148;51.454;13.862;2023-03-01T03:09:15;8.47;;;6.30;;
18046;SDS011;9148;51.454;13.862;2023-03-01T03:11:43;10.40;;;7.00;;
18046;SDS011;9148;51.454;13.862;2023-03-01T03:14:12;12.97;;;7.17;;
18046;SDS011;9148;51.454;13.862;2023-03-01T03:16:41;12.87;;;7.00;;
18046;SDS011;9148;51.454;13.862;2023-03-01T03:19:09;11.30;;;6.00;;
18046;SDS011;9148;51.454;13.862;2023-03-01T03:21:36;11.87;;;6.80;;
18046;SDS011;9148;51.454;13.862;2023-03-01T03:24:02;10.13;;;6.70;;
18046;SDS011;9148;51.454;13.862;2023-03-01T03:26:28;11.33;;;6.70;;
18046;SDS011;9148;51.454;13.862;2023-03-01T03:29:00;12.97;;;6.40;;
18046;SDS011;9148;51.454;13.862;2023-03-01T03:31:26;13.37;;;6.70;;
18046;SDS011;9148;51.454;13.862;2023-03-01T03:33:53;10.53;;;6.47;;
18046;SDS011;9148;51.454;13.862;2023-03-01T03:36:20;14.87;;;8.37;;
18046;SDS011;9148;51.454;13.862;2023-03-01T03:38:48;16.37;;;7.53;;
18046;SDS011;9148;51.454;13.862;2023-03-01T03:41:14;11.70;;;7.30;;
18046;SDS011;9148;51.454;13.862;2023-03-01T03:43:41;13.67;;;7.77;;
18046;SDS011;9148;51.454;13.862;2023-03-01T03:46:08;15.13;;;7.40;;
18046;SDS011;9148;51.454;13.862;2023-03-01T03:48:41;9.13;;;7.40;;
18046;SDS011;9148;51.454;13.862;2023-03-01T03:51:13;14.43;;;7.57;;
18046;SDS011;9148;51.454;13.862;2023-03-01T03:53:41;12.50;;;7.40;;
18046;SDS011;9148;51.454;13.862;2023-03-01T03:56:08;11.20;;;7.10;;
18046;SDS011;9148;51.454;13.862;2023-03-01T03:58:33;11.87;;;6.73;;
18046;SDS011;9148;51.454;13.862;2023-03-01T04:01:00;13.23;;;7.43;;
18046;SDS011;9148;51.454;13.862;2023-03-01T04:03:26;13.47;;;8.37;;
18046;SDS011;9148;51.454;13.862;2023-03-01T04:05:54;12.10;;;8.23;;
18046;SDS011;9148;51.454;13.862;2023-03-01T04:08:23;16.00;;;8.30;;
18046;SDS011;9148;51.454;13.862;2023-03-01T04:10:50;13.50;;;8.00;;
18046;SDS011;9148;51.454;13.862;2023-03-01T04:13:27;17.27;;;8.30;;
18046;SDS011;9148;51.454;13.862;2023-03-01T04:15:53;13.33;;;8.17;;
18046;SDS011;9148;51.454;13.862;2023-03-01T04:18:20;11.60;;;7.13;;
18046;SDS011;9148;51.454;13.862;2023-03-01T04:20:48;10.67;;;7.63;;
18046;SDS011;9148;51.454;13.862;2023-03-01T04:23:17;11.53;;;7.47;;
18046;SDS011;9148;51.454;13.862;2023-03-01T04:25:46;14.30;;;8.03;;
18046;SDS011;9148;51.454;13.862;2023-03-01T04:28:23;17.43;;;8.33;;
18046;SDS011;9148;51.454;13.862;2023-03-01T04:31:03;14.43;;;8.07;;
18046;SDS011;9148;51.454;13.862;2023-03-01T04:33:43;16.47;;;8.43;;
18046;SDS011;9148;51.454;13.862;2023-03-01T04:36:11;17.27;;;8.20;;
18046;SDS011;9148;51.454;13.862;2023-03-01T04:38:39;15.27;;;8.90;;
18046;SDS011;9148;51.454;13.862;2023-03-01T04:41:07;15.73;;;8.87;;
18046;SDS011;9148;51.454;13.862;2023-03-01T04:43:53;15.47;;;7.20;;
18046;SDS011;9148;51.454;13.862;2023-03-01T04:46:19;19.37;;;9.17;;
18046;SDS011;9148;51.454;13.862;2023-03-01T04:48:46;15.03;;;8.43;;
18046;SDS011;9148;51.454;13.862;2023-03-01T04:51:12;21.17;;;12.37;;
18046;SDS011;9148;51.454;13.862;2023-03-01T04:53:38;26.27;;;12.10;;
18046;SDS011;9148;51.454;13.862;2023-03-01T04:56:04;25.37;;;15.17;;
18046;SDS011;9148;51.454;13.862;2023-03-01T04:58:31;27.20;;;18.47;;
18046;SDS011;9148;51.454;13.862;2023-03-01T05:00:57;21.23;;;13.90;;
18046;SDS011;9148;51.454;13.862;2023-03-01T05:03:22;31.20;;;18.30;;
18046;SDS011;9148;51.454;13.862;2023-03-01T05:05:49;25.13;;;15.23;;
18046;SDS011;9148;51.454;13.862;2023-03-01T05:08:17;23.03;;;15.43;;
18046;SDS011;9148;51.454;13.862;2023-03-01T05:10:44;28.27;;;14.60;;
18046;SDS011;9148;51.454;13.862;2023-03-01T05:13:15;20.53;;;13.60;;
18046;SDS011;9148;51.454;13.862;2023-03-01T05:15:46;22.60;;;10.23;;
18046;SDS011;9148;51.454;13.862;2023-03-01T05:18:18;15.40;;;9.30;;
18046;SDS011;9148;51.454;13.862;2023-03-01T05:20:43;16.27;;;10.90;;
18046;SDS011;9148;51.454;13.862;2023-03-01T05:23:09;17.90;;;10.57;;
18046;SDS011;9148;51.454;13.862;2023-03-01T05:25:35;20.90;;;10.93;;
18046;SDS011;9148;51.454;13.862;2023-03-01T05:28:05;18.27;;;10.30;;
18046;SDS011;9148;51.454;13.862;2023-03-01T05:30:34;19.93;;;10.47;;
18046;SDS011;9148;51.454;13.862;2023-03-01T05:33:01;17.47;;;8.20;;
18046;SDS011;9148;51.454;13.862;2023-03-01T05:35:27;18.03;;;10.20;;
18046;SDS011;9148;51.454;13.862;2023-03-01T05:37:54;22.93;;;10.80;;
18046;SDS011;9148;51.454;13.862;2023-03-01T05:40:21;12.30;;;8.83;;
18046;SDS011;9148;51.454;13.862;2023-03-01T05:42:49;21.47;;;10.23;;
18046;SDS011;9148;51.454;13.862;2023-03-01T05:45:19;24.53;;;9.93;;
18046;SDS011;9148;51.454;13.862;2023-03-01T05:47:46;19.27;;;10.07;;
18046;SDS011;9148;51.454;13.862;2023-03-01T05:50:14;12.37;;;8.33;;
18046;SDS011;9148;51.454;13.862;2023-03-01T05:52:50;13.87;;;8.33;;
18046;SDS011;9148;51.454;13.862;2023-03-01T05:55:23;17.27;;;9.50;;
18046;SDS011;9148;51.454;13.862;2023-03-01T05:57:49;14.87;;;9.07;;
18046;SDS011;9148;51.454;13.862;2023-03-01T06:00:16;16.27;;;8.87;;
18046;SDS011;9148;51.454;13.862;2023-03-01T06:02:44;14.53;;;8.63;;
18046;SDS011;9148;51.454;13.862;2023-03-01T06:05:10;14.67;;;8.93;;
18046;SDS011;9148;51.454;13.862;2023-03-01T06:07:37;17.43;;;7.97;;
18046;SDS011;9148;51.454;13.862;2023-03-01T06:10:03;20.30;;;9.67;;
18046;SDS011;9148;51.454;13.862;2023-03-01T06:12:31;13.23;;;8.07;;
18046;SDS011;9148;51.454;13.862;2023-03-01T06:14:59;13.70;;;8.17;;
18046;SDS011;9148;51.454;13.862;2023-03-01T06:17:25;17.57;;;8.90;;
18046;SDS011;9148;51.454;13.862;2023-03-01T06:19:53;15.33;;;8.23;;
18046;SDS011;9148;51.454;13.862;2023-03-01T06:22:19;15.13;;;8.60;;
18046;SDS011;9148;51.454;13.862;2023-03-01T06:24:45;15.73;;;8.77;;
18046;SDS011;9148;51.454;13.862;2023-03-01T06:27:10;18.07;;;10.60;;
18046;SDS011;9148;51.454;13.862;2023-03-01T06:29:36;16.37;;;9.90;;
18046;SDS011;9148;51.454;13.862;2023-03-01T06:32:02;20.40;;;11.00;;
18046;SDS011;9148;51.454;13.862;2023-03-01T06:34:28;20.37;;;10.83;;
18046;SDS011;9148;51.454;13.862;2023-03-01T06:36:54;20.63;;;10.57;;
18046;SDS011;9148;51.454;13.862;2023-03-01T06:39:20;19.03;;;12.17;;
18046;SDS011;9148;51.454;13.862;2023-03-01T06:41:46;21.40;;;10.10;;
18046;SDS011;9148;51.454;13.862;2023-03-01T06:44:11;19.70;;;11.23;;
18046;SDS011;9148;51.454;13.862;2023-03-01T06:46:38;16.00;;;10.47;;
18046;SDS011;9148;51.454;13.862;2023-03-01T06:49:05;18.07;;;10.20;;
18046;SDS011;9148;51.454;13.862;2023-03-01T06:51:34;16.27;;;9.90;;
18046;SDS011;9148;51.454;13.862;2023-03-01T06:54:06;13.73;;;8.87;;
18046;SDS011;9148;51.454;13.862;2023-03-01T06:56:31;13.13;;;8.00;;
18046;SDS011;9148;51.454;13.862;2023-03-01T06:58:58;13.40;;;7.73;;
18046;SDS011;9148;51.454;13.862;2023-03-01T07:01:23;11.53;;;6.73;;
18046;SDS011;9148;51.454;13.862;2023-03-01T07:03:49;12.40;;;7.03;;
18046;SDS011;9148;51.454;13.862;2023-03-01T07:06:15;11.00;;;6.80;;
18046;SDS011;9148;51.454;13.862;2023-03-01T07:08:40;10.43;;;6.17;;
18046;SDS011;9148;51.454;13.862;2023-03-01T07:11:06;9.83;;;6.40;;
18046;SDS011;9148;51.454;13.862;2023-03-01T07:13:33;12.30;;;7.17;;
18046;SDS011;9148;51.454;13.862;2023-03-01T07:15:58;10.97;;;7.03;;
18046;SDS011;9148;51.454;13.862;2023-03-01T07:18:24;11.80;;;8.33;;
18046;SDS011;9148;51.454;13.862;2023-03-01T07:20:50;9.03;;;5.77;;
18046;SDS011;9148;51.454;13.862;2023-03-01T07:23:15;9.97;;;7.43;;
18046;SDS011;9148;51.454;13.862;2023-03-01T07:25:41;14.43;;;7.73;;
18046;SDS011;9148;51.454;13.862;2023-03-01T07:28:07;14.23;;;8.30;;
18046;SDS011;9148;51.454;13.862;2023-03-01T07:30:33;12.53;;;7.80;;
18046;SDS011;9148;51.454;13.862;2023-03-01T07:32:58;13.33;;;7.37;;
18046;SDS011;9148;51.454;13.862;2023-03-01T07:35:25;8.93;;;7.40;;
18046;SDS011;9148;51.454;13.862;2023-03-01T07:37:51;12.63;;;6.93;;
18046;SDS011;9148;51.454;13.862;2023-03-01T07:40:18;10.53;;;6.53;;
18046;SDS011;9148;51.454;13.862;2023-03-01T07:42:44;11.80;;;6.30;;
18046;SDS011;9148;51.454;13.862;2023-03-01T07:45:10;13.60;;;6.40;;
18046;SDS011;9148;51.454;13.862;2023-03-01T07:47:37;10.10;;;6.93;;
18046;SDS011;9148;51.454;13.862;2023-03-01T07:50:03;7.40;;;4.83;;
18046;SDS011;9148;51.454;13.862;2023-03-01T07:52:29;10.73;;;5.77;;
18046;SDS011;9148;51.454;13.862;2023-03-01T07:54:55;11.47;;;6.63;;
18046;SDS011;9148;51.454;13.862;2023-03-01T07:57:22;7.67;;;6.20;;
18046;SDS011;9148;51.454;13.862;2023-03-01T07:59:48;9.37;;;6.97;;
18046;SDS011;9148;51.454;13.862;2023-03-01T08:02:13;15.87;;;6.60;;
18046;SDS011;9148;51.454;13.862;2023-03-01T08:04:40;11.27;;;7.20;;
18046;SDS011;9148;51.454;13.862;2023-03-01T08:07:07;11.10;;;6.23;;
18046;SDS011;9148;51.454;13.862;2023-03-01T08:09:36;9.60;;;6.33;;
18046;SDS011;9148;51.454;13.862;2023-03-01T08:12:02;9.23;;;6.20;;
18046;SDS011;9148;51.454;13.862;2023-03-01T08:14:29;9.70;;;6.33;;
18046;SDS011;9148;51.454;13.862;2023-03-01T08:16:57;10.53;;;6.77;;
18046;SDS011;9148;51.454;13.862;2023-03-01T08:19:22;14.23;;;9.20;;
18046;SDS011;9148;51.454;13.862;2023-03-01T08:21:48;17.30;;;8.00;;
18046;SDS011;9148;51.454;13.862;2023-03-01T08:24:14;11.53;;;7.27;;
18046;SDS011;9148;51.454;13.862;2023-03-01T08:26:40;11.83;;;8.07;;
18046;SDS011;9148;51.454;13.862;2023-03-01T08:29:05;10.60;;;7.53;;
18046;SDS011;9148;51.454;13.862;2023-03-01T08:31:35;14.70;;;7.60;;
18046;SDS011;9148;51.454;13.862;2023-03-01T08:34:07;13.63;;;7.50;;
18046;SDS011;9148;51.454;13.862;2023-03-01T08:36:40;13.13;;;6.33;;
18046;SDS011;9148;51.454;13.862;2023-03-01T08:39:08;10.40;;;7.53;;
18046;SDS011;9148;51.454;13.862;2023-03-01T08:41:37;9.53;;;7.17;;
18046;SDS011;9148;51.454;13.862;2023-03-01T08:44:03;11.17;;;7.93;;
18046;SDS011;9148;51.454;13.862;2023-03-01T08:46:33;14.67;;;8.20;;
18046;SDS011;9148;51.454;13.862;2023-03-01T08:49:04;11.93;;;7.50;;
18046;SDS011;9148;51.454;13.862;2023-03-01T08:51:36;12.33;;;7.30;;
18046;SDS011;9148;51.454;13.862;2023-03-01T08:54:02;13.50;;;8.23;;
18046;SDS011;9148;51.454;13.862;2023-03-01T08:56:36;11.13;;;8.13;;
18046;SDS011;9148;51.454;13.862;2023-03-01T08:59:02;12.63;;;9.00;;
18046;SDS011;9148;51.454;13.862;2023-03-01T09:01:27;12.97;;;8.17;;
18046;SDS011;9148;51.454;13.862;2023-03-01T09:03:53;15.00;;;8.13;;
18046;SDS011;9148;51.454;13.862;2023-03-01T09:06:19;14.07;;;9.10;;
18046;SDS011;9148;51.454;13.862;2023-03-01T09:08:45;16.07;;;7.73;;
18046;SDS011;9148;51.454;13.862;2023-03-01T09:11:14;18.57;;;8.97;;
18046;SDS011;9148;51.454;13.862;2023-03-01T09:13:43;11.80;;;7.77;;
18046;SDS011;9148;51.454;13.862;2023-03-01T09:16:23;10.27;;;6.97;;
18046;SDS011;9148;51.454;13.862;2023-03-01T09:18:52;10.80;;;8.37;;
18046;SDS011;9148;51.454;13.862;2023-03-01T09:21:19;13.37;;;9.33;;
18046;SDS011;9148;51.454;13.862;2023-03-01T09:23:47;10.67;;;6.63;;
18046;SDS011;9148;51.454;13.862;2023-03-01T09:26:14;10.70;;;7.70;;
18046;SDS011;9148;51.454;13.862;2023-03-01T09:28:47;12.93;;;8.27;;
18046;SDS011;9148;51.454;13.862;2023-03-01T09:31:15;15.30;;;9.13;;
18046;SDS011;9148;51.454;13.862;2023-03-01T09:33:44;12.30;;;7.80;;
18046;SDS011;9148;51.454;13.862;2023-03-01T09:36:14;10.27;;;7.50;;
18046;SDS011;9148;51.454;13.862;2023-03-01T09:38:43;10.30;;;7.50;;
18046;SDS011;9148;51.454;13.862;2023-03-01T09:41:18;15.50;;;8.10;;
18046;SDS011;9148;51.454;13.862;2023-03-01T09:44:10;11.00;;;6.47;;
18046;SDS011;9148;51.454;13.862;2023-03-01T09:46:56;12.13;;;7.30;;
18046;SDS011;9148;51.454;13.862;2023-03-01T09:49:30;13.47;;;8.13;;
18046;SDS011;9148;51.454;13.862;2023-03-01T09:54:49;16.57;;;8.40;;
18046;SDS011;9148;51.454;13.862;2023-03-01T10:00:17;10.70;;;7.33;;
18046;SDS011;9148;51.454;13.862;2023-03-01T10:03:08;11.27;;;8.10;;
18046;SDS011;9148;51.454;13.862;2023-03-01T10:08:33;13.47;;;8.60;;
18046;SDS011;9148;51.454;13.862;2023-03-01T10:11:12;15.17;;;7.30;;
18046;SDS011;9148;51.454;13.862;2023-03-01T10:14:34;14.07;;;7.27;;
18046;SDS011;9148;51.454;13.862;2023-03-01T10:22:47;12.17;;;6.97;;
18046;SDS011;9148;51.454;13.862;2023-03-01T10:25:20;13.63;;;6.73;;
18046;SDS011;9148;51.454;13.862;2023-03-01T10:30:42;12.30;;;7.63;;
18046;SDS011;9148;51.454;13.862;2023-03-01T10:33:14;10.47;;;7.50;;
18046;SDS011;9148;51.454;13.862;2023-03-01T10:35:51;10.73;;;7.00;;
18046;SDS011;9148;51.454;13.862;2023-03-01T10:38:17;15.40;;;7.97;;
18046;SDS011;9148;51.454;13.862;2023-03-01T10:40:59;12.80;;;7.37;;
18046;SDS011;9148;51.454;13.862;2023-03-01T10:43:48;9.37;;;6.83;;
18046;SDS011;9148;51.454;13.862;2023-03-01T10:46:21;9.63;;;6.47;;
18046;SDS011;9148;51.454;13.862;2023-03-01T10:49:16;13.13;;;6.90;;
18046;SDS011;9148;51.454;13.862;2023-03-01T10:51:46;17.50;;;6.67;;
18046;SDS011;9148;51.454;13.862;2023-03-01T10:54:21;14.70;;;6.43;;
18046;SDS011;9148;51.454;13.862;2023-03-01T10:56:58;8.43;;;5.37;;
18046;SDS011;9148;51.454;13.862;2023-03-01T11:02:21;11.90;;;6.20;;
18046;SDS011;9148;51.454;13.862;2023-03-01T11:07:56;10.07;;;6.47;;
18046;SDS011;9148;51.454;13.862;2023-03-01T11:10:30;8.00;;;5.77;;
18046;SDS011;9148;51.454;13.862;2023-03-01T11:13:32;9.47;;;4.77;;
18046;SDS011;9148;51.454;13.862;2023-03-01T11:15:59;8.13;;;5.63;;
18046;SDS011;9148;51.454;13.862;2023-03-01T11:18:28;9.57;;;5.93;;
18046;SDS011;9148;51.454;13.862;2023-03-01T11:20:55;10.83;;;6.03;;
18046;SDS011;9148;51.454;13.862;2023-03-01T11:23:23;11.67;;;5.10;;
18046;SDS011;9148;51.454;13.862;2023-03-01T11:26:01;10.13;;;5.40;;
18046;SDS011;9148;51.454;13.862;2023-03-01T11:28:32;7.33;;;6.03;;
18046;SDS011;9148;51.454;13.862;2023-03-01T11:31:04;9.67;;;5.13;;
18046;SDS011;9148;51.454;13.862;2023-03-01T11:33:39;10.00;;;5.83;;
18046;SDS011;9148;51.454;13.862;2023-03-01T11:36:21;11.33;;;6.03;;
18046;SDS011;9148;51.454;13.862;2023-03-01T11:38:55;9.50;;;6.10;;
18046;SDS011;9148;51.454;13.862;2023-03-01T11:41:23;12.23;;;5.77;;
18046;SDS011;9148;51.454;13.862;2023-03-01T11:44:02;7.73;;;6.30;;
18046;SDS011;9148;51.454;13.862;2023-03-01T11:49:56;11.13;;;5.73;;
18046;SDS011;9148;51.454;13.862;2023-03-01T12:01:11;11.23;;;5.77;;
18046;SDS011;9148;51.454;13.862;2023-03-01T12:06:59;10.67;;;5.20;;
18046;SDS011;9148;51.454;13.862;2023-03-01T12:12:23;8.70;;;4.87;;
18046;SDS011;9148;51.454;13.862;2023-03-01T12:15:25;8.50;;;4.80;;
18046;SDS011;9148;51.454;13.862;2023-03-01T12:27:12;8.90;;;4.95;;
18046;SDS011;9148;51.454;13.862;2023-03-01T12:38:32;6.85;;;4.35;;
18046;SDS011;9148;51.454;13.862;2023-03-01T12:41:08;8.32;;;4.70;;
18046;SDS011;9148;51.454;13.862;2023-03-01T12:46:52;9.10;;;4.78;;
18046;SDS011;9148;51.454;13.862;2023-03-01T12:49:41;9.30;;;4.28;;
18046;SDS011;9148;51.454;13.862;2023-03-01T12:52:44;11.60;;;5.80;;
18046;SDS011;9148;51.454;13.862;2023-03-01T12:55:26;8.43;;;4.28;;
18046;SDS011;9148;51.454;13.862;2023-03-01T13:12:41;7.47;;;3.67;;
18046;SDS011;9148;51.454;13.862;2023-03-01T13:15:32;8.23;;;4.43;;
18046;SDS011;9148;51.454;13.862;2023-03-01T13:18:04;9.30;;;4.53;;
18046;SDS011;9148;51.454;13.862;2023-03-01T13:20:54;10.55;;;4.65;;
18046;SDS011;9148;51.454;13.862;2023-03-01T13:31:55;10.23;;;4.23;;
18046;SDS011;9148;51.454;13.862;2023-03-01T13:33:56;7.87;;;4.10;;
18046;SDS011;9148;51.454;13.862;2023-03-01T13:39:00;7.43;;;4.30;;
18046;SDS011;9148;51.454;13.862;2023-03-01T13:44:20;8.83;;;4.53;;
18046;SDS011;9148;51.454;13.862;2023-03-01T13:49:35;11.60;;;4.97;;
18046;SDS011;9148;51.454;13.862;2023-03-01T13:55:36;8.57;;;5.00;;
18046;SDS011;9148;51.454;13.862;2023-03-01T13:58:15;7.23;;;4.70;;
18046;SDS011;9148;51.454;13.862;2023-03-01T14:03:31;6.47;;;4.60;;
18046;SDS011;9148;51.454;13.862;2023-03-01T14:08:29;7.27;;;4.03;;
18046;SDS011;9148;51.454;13.862;2023-03-01T14:14:10;7.60;;;4.37;;
18046;SDS011;9148;51.454;13.862;2023-03-01T14:19:58;7.33;;;4.53;;
18046;SDS011;9148;51.454;13.862;2023-03-01T14:22:57;7.20;;;5.33;;
18046;SDS011;9148;51.454;13.862;2023-03-01T14:25:28;11.47;;;5.10;;
18046;SDS011;9148;51.454;13.862;2023-03-01T14:27:58;7.63;;;4.97;;
18046;SDS011;9148;51.454;13.862;2023-03-01T14:30:32;9.00;;;5.07;;
18046;SDS011;9148;51.454;13.862;2023-03-01T14:33:05;5.33;;;4.20;;
18046;SDS011;9148;51.454;13.862;2023-03-01T14:35:51;7.17;;;4.93;;
18046;SDS011;9148;51.454;13.862;2023-03-01T14:38:28;8.70;;;4.50;;
18046;SDS011;9148;51.454;13.862;2023-03-01T14:41:02;6.50;;;4.40;;
18046;SDS011;9148;51.454;13.862;2023-03-01T14:43:41;8.23;;;5.23;;
18046;SDS011;9148;51.454;13.862;2023-03-01T14:46:23;8.83;;;4.80;;
18046;SDS011;9148;51.454;13.862;2023-03-01T14:49:11;6.77;;;4.70;;
18046;SDS011;9148;51.454;13.862;2023-03-01T14:51:42;8.43;;;5.37;;
18046;SDS011;9148;51.454;13.862;2023-03-01T14:57:28;10.60;;;6.13;;
18046;SDS011;9148;51.454;13.862;2023-03-01T14:59:54;11.37;;;6.53;;
18046;SDS011;9148;51.454;13.862;2023-03-01T15:02:25;9.00;;;5.10;;
18046;SDS011;9148;51.454;13.862;2023-03-01T15:04:54;23.30;;;4.20;;
18046;SDS011;9148;51.454;13.862;2023-03-01T15:07:26;9.90;;;5.30;;
18046;SDS011;9148;51.454;13.862;2023-03-01T15:09:58;7.83;;;4.87;;
18046;SDS011;9148;51.454;13.862;2023-03-01T15:14:54;7.87;;;4.40;;
18046;SDS011;9148;51.454;13.862;2023-03-01T15:17:31;7.07;;;4.03;;
18046;SDS011;9148;51.454;13.862;2023-03-01T15:19:59;7.37;;;4.67;;
18046;SDS011;9148;51.454;13.862;2023-03-01T15:22:29;4.07;;;3.40;;
18046;SDS011;9148;51.454;13.862;2023-03-01T15:24:55;7.70;;;4.47;;
18046;SDS011;9148;51.454;13.862;2023-03-01T15:27:24;8.83;;;3.70;;
18046;SDS011;9148;51.454;13.862;2023-03-01T15:29:57;7.60;;;4.27;;
18046;SDS011;9148;51.454;13.862;2023-03-01T15:32:34;5.97;;;3.30;;
18046;SDS011;9148;51.454;13.862;2023-03-01T15:41:27;6.70;;;4.90;;
18046;SDS011;9148;51.454;13.862;2023-03-01T15:44:00;7.07;;;5.03;;
18046;SDS011;9148;51.454;13.862;2023-03-01T15:46:44;6.90;;;4.63;;
18046;SDS011;9148;51.454;13.862;2023-03-01T15:52:01;11.20;;;4.57;;
18046;SDS011;9148;51.454;13.862;2023-03-01T15:54:28;14.60;;;6.43;;
18046;SDS011;9148;51.454;13.862;2023-03-01T15:56:54;9.67;;;5.13;;
18046;SDS011;9148;51.454;13.862;2023-03-01T15:59:20;6.00;;;3.70;;
18046;SDS011;9148;51.454;13.862;2023-03-01T16:01:47;8.37;;;5.10;;
18046;SDS011;9148;51.454;13.862;2023-03-01T16:04:15;8.37;;;4.83;;
18046;SDS011;9148;51.454;13.862;2023-03-01T16:06:47;7.83;;;4.43;;
18046;SDS011;9148;51.454;13.862;2023-03-01T16:09:18;6.70;;;4.50;;
18046;SDS011;9148;51.454;13.862;2023-03-01T16:11:49;6.80;;;3.83;;
18046;SDS011;9148;51.454;13.862;2023-03-01T16:14:16;5.97;;;4.30;;
18046;SDS011;9148;51.454;13.862;2023-03-01T16:16:42;5.97;;;3.70;;
18046;SDS011;9148;51.454;13.862;2023-03-01T16:19:08;5.70;;;3.73;;
18046;SDS011;9148;51.454;13.862;2023-03-01T16:21:35;5.23;;;3.93;;
18046;SDS011;9148;51.454;13.862;2023-03-01T16:24:01;5.87;;;3.17;;
18046;SDS011;9148;51.454;13.862;2023-03-01T16:26:27;8.37;;;4.47;;
18046;SDS011;9148;51.454;13.862;2023-03-01T16:28:56;5.97;;;3.20;;
18046;SDS011;9148;51.454;13.862;2023-03-01T16:31:23;4.80;;;3.20;;
18046;SDS011;9148;51.454;13.862;2023-03-01T16:33:52;5.67;;;3.13;;
18046;SDS011;9148;51.454;13.862;2023-03-01T16:36:20;5.60;;;3.77;;
18046;SDS011;9148;51.454;13.862;2023-03-01T16:38:51;4.80;;;2.83;;
18046;SDS011;9148;51.454;13.862;2023-03-01T16:41:18;4.67;;;3.47;;
18046;SDS011;9148;51.454;13.862;2023-03-01T16:43:46;8.70;;;4.37;;
18046;SDS011;9148;51.454;13.862;2023-03-01T16:46:16;6.53;;;4.77;;
18046;SDS011;9148;51.454;13.862;2023-03-01T16:48:46;7.33;;;4.13;;
18046;SDS011;9148;51.454;13.862;2023-03-01T16:51:12;5.07;;;3.73;;
18046;SDS011;9148;51.454;13.862;2023-03-01T16:53:38;6.27;;;3.83;;
18046;SDS011;9148;51.454;13.862;2023-03-01T16:56:05;5.97;;;4.37;;
18046;SDS011;9148;51.454;13.862;2023-03-01T16:58:34;8.17;;;5.23;;
18046;SDS011;9148;51.454;13.862;2023-03-01T17:01:14;10.77;;;5.93;;
18046;SDS011;9148;51.454;13.862;2023-03-01T17:03:43;7.97;;;5.27;;
18046;SDS011;9148;51.454;13.862;2023-03-01T17:06:12;6.70;;;4.77;;
18046;SDS011;9148;51.454;13.862;2023-03-01T17:08:40;7.27;;;4.80;;